Dobrodošli na spletni strani vremenske postaje Senovo. Vse informacije so informativnega značaja, saj vremenska postaja ni del državne mreže meteoroloških postaj. AKTUALNIH OBVESTIL NI.


Sneg/Led Od: 21-02-2018 00:00 Do: 23-02-2018 23:59 Opozorilo za: Sneg/Led Stopnja: Rumena info button
Veter Od: 21-02-2018 00:00 Do: 22-02-2018 23:59 Opozorilo za: Veter Stopnja: Rumena info button

Pogled proti Armezu več informacij Pogled proti Armezu


Lisca več informacij Lisca


Radar strel več informacij blitzortung!


opozorilo za sneg/led več informacij rain snow radar


Obiščite še:

Template documentation
and downloads

And another site



Weather Underground, zgodovina - Tekstovno

Dnevni povzetek za Januar 17, 2018 Enote:  Metrično    Angleško   Obe
« Predhodni Dan
Naslednji Dan »
Dnevni Tedenski Mesečni Letni Po meri
  Višja: Nižja: Povprečje:
Temperatura: -17.8 °C -19.1 °C -15.9 °C
Točka rosišča: -17.8 °C -23.4 °C -18.9 °C
Vlažnost: Humidity % 39 % 69 %
Hitrost vetra: 0 km/h 0 km/h 3.1 km/h
Sunki vetra: 0 km/h - -
Veter:- - WSW
Zračni tlak: 0 hPa 33660.2 hPa -
Padavine: 63.5 mm    
Historical Graphs
 
 
Tabelarni podarki za Januar 17, 2018
Čas Temperatura Točka rosišča Zračni tlak Veter Hitrost vetra Sunki vetra Vlažnost Intenziteta padavin (urna)
-17.8 °C -17.8 °C 0 hPa Calm     Humidity % 0 mm
00:03 -13.3 °C -16.5 °C 33822.8 hPa SW 8.9 km/h 22.5 km/h 67 % 0 mm
00:14 -13.4 °C -16.5 °C 33822.8 hPa South 8.5 km/h 14.5 km/h 68 % 0 mm
00:24 -13.6 °C -16.7 °C 33822.8 hPa SSE 8 km/h 16.9 km/h 68 % 0 mm
00:37 -13.7 °C -16.8 °C 33822.8 hPa SSW 7.7 km/h 16.3 km/h 68 % 0 mm
00:47 -13.8 °C -16.9 °C 33822.8 hPa SSW 6.9 km/h 15 km/h 68 % 0 mm
01:00 -14 °C -16.9 °C 33822.8 hPa SW 2.3 km/h 7.6 km/h 69 % 0 mm
01:36 -14.3 °C -17.1 °C 33751.6 hPa SW 2.3 km/h 6.9 km/h 71 % 0 mm
01:52 -14.6 °C -17.2 °C 33751.6 hPa Calm     72 % 0 mm
01:59 -14.6 °C -17.1 °C 33731.3 hPa Calm     73 % 0 mm
02:05 -14.6 °C -17.1 °C 33731.3 hPa Calm     73 % 0 mm
02:24 -14.7 °C -17.1 °C 33751.6 hPa Calm     74 % 0 mm
02:32 -14.7 °C -17 °C 33751.6 hPa Calm     75 % 0 mm
02:39 -14.8 °C -17.1 °C 33751.6 hPa Calm     75 % 0 mm
02:49 -14.8 °C -16.9 °C 33731.3 hPa Calm     76 % 0 mm
02:55 -14.8 °C -16.9 °C 33731.3 hPa SW 0.3 km/h 4.2 km/h 76 % 0 mm
03:07 -14.8 °C -16.8 °C 33731.3 hPa Calm     77 % 0 mm
03:17 -14.8 °C -16.8 °C 33731.3 hPa West 0.3 km/h 5.1 km/h 77 % 0 mm
03:24 -14.8 °C -16.7 °C 33731.3 hPa Calm     78 % 0 mm
03:30 -14.8 °C -16.7 °C 33731.3 hPa SW 0.8 km/h 6.4 km/h 78 % 0 mm
03:37 -14.7 °C -16.6 °C 33731.3 hPa SW 0.8 km/h 6.4 km/h 79 % 0 mm
03:45 -14.7 °C -16.5 °C 33694.1 hPa NW 0.8 km/h 6.4 km/h 80 % 0 mm
04:03 -14.7 °C -16.3 °C 33694.1 hPa SSW 0.5 km/h 3.4 km/h 81 % 0 mm
04:10 -14.7 °C -16.4 °C 33694.1 hPa West 0.3 km/h 4.2 km/h 81 % 0 mm
04:37 -14.7 °C -16.3 °C 33694.1 hPa Calm     82 % 0 mm
04:43 -14.7 °C -16.2 °C 33694.1 hPa Calm     83 % 0 mm
04:52 -14.7 °C -16.2 °C 33694.1 hPa NW 0.3 km/h 4.2 km/h 83 % 0 mm
05:24 -14.7 °C -16.1 °C 33694.1 hPa SSW 0.5 km/h 4.2 km/h 84 % 0 mm
06:11 -14.8 °C -16 °C 33694.1 hPa West 3.1 km/h 6.9 km/h 86 % 7.62 mm
06:24 -14.7 °C -15.9 °C 33694.1 hPa SW 4.2 km/h 8 km/h 86 % 7.62 mm
06:30 -14.7 °C -15.9 °C 33694.1 hPa SSE 0.8 km/h 5.6 km/h 86 % 7.62 mm
06:39 -14.8 °C -16 °C 33694.1 hPa Calm     86 % 12.7 mm
06:46 -14.8 °C -15.9 °C 33694.1 hPa WNW 0.8 km/h 4.2 km/h 87 % 12.7 mm
07:03 -14.8 °C -15.9 °C 33694.1 hPa SSW 2.6 km/h 8 km/h 87 % 7.62 mm
07:10 -14.8 °C -15.9 °C 33694.1 hPa WSW 1.6 km/h 6.9 km/h 87 % 7.62 mm
07:28 -14.8 °C -15.8 °C 33694.1 hPa SW 4.7 km/h 10.3 km/h 88 % 12.7 mm
07:39 -14.8 °C -15.8 °C 33694.1 hPa North 0.3 km/h   88 % 12.7 mm
07:46 -14.8 °C -15.8 °C 33660.2 hPa Calm     88 % 25.4 mm
07:54 -14.8 °C -15.8 °C 33660.2 hPa WSW 2.1 km/h 6.4 km/h 89 % 25.4 mm
08:37 -14.8 °C -15.7 °C 33731.3 hPa Calm     90 % 12.7 mm
08:43 -14.8 °C -15.6 °C 33694.1 hPa SSE 0.8 km/h 5.6 km/h 91 % 7.62 mm
08:50 -14.8 °C -15.6 °C 33694.1 hPa SSW 2.3 km/h 7.6 km/h 91 % 7.62 mm
08:56 -14.8 °C -15.5 °C 33694.1 hPa SSW 1.8 km/h 7.6 km/h 91 % 0 mm
09:09 -14.8 °C -15.5 °C 33694.1 hPa WNW 1 km/h 6.4 km/h 91 % 0 mm
09:16 -14.7 °C -15.3 °C 33694.1 hPa Calm     92 % 0 mm
09:22 -14.6 °C -15.3 °C 33694.1 hPa South 0.8 km/h 5.6 km/h 92 % 0 mm
09:34 -14.6 °C -15.3 °C 33694.1 hPa Calm     92 % 0 mm
09:56 -14.6 °C -15.1 °C 33694.1 hPa NNE 0.5 km/h 9.8 km/h 93 % 0 mm
10:02 -14.6 °C -15.1 °C 33694.1 hPa NE 1.6 km/h 9.8 km/h 93 % 0 mm
10:12 -14.5 °C -15.1 °C 33731.3 hPa East 2.9 km/h 9.8 km/h 93 % 0 mm
10:21 -14.6 °C -15.1 °C 33731.3 hPa WSW 2.9 km/h 7.6 km/h 93 % 0 mm
10:30 -14.6 °C -15.2 °C 33731.3 hPa North 0.3 km/h   93 % 0 mm
10:42 -14.6 °C -15.2 °C 33731.3 hPa SW 0.8 km/h 6.4 km/h 93 % 0 mm
10:48 -14.6 °C -15.2 °C 33731.3 hPa SSW 0.5 km/h 4.2 km/h 93 % 0 mm
11:06 -14.6 °C -15.2 °C 33731.3 hPa West 1.3 km/h 7.6 km/h 93 % 0 mm
11:15 -14.6 °C -15.1 °C 33731.3 hPa Calm   5.6 km/h 93 % 0 mm
11:37 -14.2 °C -14.8 °C 33731.3 hPa SW 1.8 km/h 6.4 km/h 93 % 0 mm
11:48 -14.2 °C -14.8 °C 33731.3 hPa SSW 1.6 km/h 7.6 km/h 93 % 0 mm
12:29 -14.1 °C -14.8 °C 33731.3 hPa SSW 3.1 km/h 8.9 km/h 92 % 0 mm
12:37 -14.1 °C -14.7 °C 33731.3 hPa South 2.3 km/h 6.9 km/h 92 % 0 mm
12:54 -14.1 °C -14.8 °C 33731.3 hPa WSW 3.1 km/h 6.9 km/h 92 % 0 mm
13:05 -14.1 °C -14.8 °C 33751.6 hPa WSW 0.3 km/h 7.6 km/h 91 % 0 mm
13:12 -14.1 °C -14.8 °C 33751.6 hPa WSW 2.6 km/h 10.3 km/h 91 % 0 mm
13:19 -14.1 °C -14.8 °C 33751.6 hPa WSW 6 km/h 10.3 km/h 91 % 0 mm
13:30 -13.9 °C -14.8 °C 33788.9 hPa SW 5.6 km/h 9.3 km/h 90 % 0 mm
13:50 -13.9 °C -14.8 °C 33788.9 hPa WSW 2.1 km/h 8.9 km/h 89 % 0 mm
14:23 -15.2 °C -16.5 °C 33788.9 hPa NE 11.1 km/h 20.9 km/h 85 % 25.4 mm
14:36 -15.4 °C -16.8 °C 33822.8 hPa NE 0.8 km/h 10.3 km/h 84 % 25.4 mm
14:58 -15.6 °C -16.9 °C 33788.9 hPa NW 0.5 km/h 6.4 km/h 84 % 25.4 mm
15:17 -15.5 °C -16.9 °C 33822.8 hPa NNW 6.3 km/h 17.9 km/h 84 % 0 mm
15:38 -15.2 °C -16.7 °C 33856.6 hPa North 8 km/h 20.3 km/h 83 % 0 mm
15:45 -15.1 °C -16.7 °C 33856.6 hPa NNW 7.6 km/h 15 km/h 82 % 0 mm
16:07 -15.1 °C -17.1 °C 33856.6 hPa NW 6.8 km/h 25.4 km/h 77 % 0 mm
16:16 -14.9 °C -17.2 °C 33856.6 hPa NNW 8 km/h 14.5 km/h 75 % 0 mm
16:21 -14.9 °C -17.3 °C 33856.6 hPa NNW 6.9 km/h 14 km/h 74 % 0 mm
16:27 -15 °C -17.6 °C 33856.6 hPa North 6.3 km/h 15.6 km/h 72 % 0 mm
16:38 -15.1 °C -17.8 °C 33856.6 hPa North 4.2 km/h 11.1 km/h 71 % 0 mm
16:56 -14.9 °C -18.2 °C 33890.5 hPa NNE 9 km/h 19.6 km/h 66 % 0 mm
17:19 -15 °C -18.9 °C 33890.5 hPa NNW 7.2 km/h 16.9 km/h 60 % 0 mm
17:24 -15 °C -19.1 °C 33890.5 hPa NNE 6 km/h 12.2 km/h 59 % 0 mm
17:33 -14.9 °C -19.2 °C 33924.3 hPa NNW 10.3 km/h 27.2 km/h 57 % 0 mm
17:41 -14.8 °C -19.4 °C 33958.2 hPa NW 7.6 km/h 19.2 km/h 55 % 0 mm
17:47 -14.8 °C -19.6 °C 33958.2 hPa NW 6.8 km/h 11.1 km/h 54 % 0 mm
17:57 -14.9 °C -19.9 °C 33958.2 hPa NNW 8 km/h 19.6 km/h 52 % 0 mm
18:03 -15.1 °C -20.1 °C 33958.2 hPa WNW 9.3 km/h 16.9 km/h 52 % 0 mm
18:14 -15.2 °C -20.3 °C 33958.2 hPa West 5 km/h 9.3 km/h 51 % 0 mm
18:24 -15.1 °C -20.4 °C 33958.2 hPa NW 6.9 km/h 12.7 km/h 50 % 0 mm
18:29 -15.2 °C -20.6 °C 33958.2 hPa NW 8.2 km/h 20.9 km/h 49 % 0 mm
18:47 -14.9 °C -21.2 °C 33958.2 hPa WNW 11.6 km/h 33.6 km/h 44 % 0 mm
19:04 -14.9 °C -21.7 °C 33958.2 hPa NW 10.9 km/h 26.7 km/h 41 % 0 mm
19:10 -14.9 °C -21.9 °C 33958.2 hPa WNW 11.6 km/h 27.7 km/h 40 % 0 mm
19:17 -15.1 °C -22.1 °C 33992.1 hPa NNW 7.6 km/h 19.2 km/h 40 % 0 mm
19:23 -15.2 °C -22.3 °C 33992.1 hPa North 7.6 km/h 16.9 km/h 39 % 0 mm
19:30 -15.3 °C -22.4 °C 33992.1 hPa NNW 7.6 km/h 22 km/h 39 % 0 mm
19:55 -16.1 °C -22.9 °C 34029.3 hPa NW 5.1 km/h 12.7 km/h 40 % 0 mm
20:14 -16.7 °C -23.3 °C 34029.3 hPa NW 4.3 km/h 9.3 km/h 41 % 0 mm
20:19 -17 °C -23.4 °C 34029.3 hPa WNW 4.2 km/h 6.4 km/h 42 % 0 mm
20:27 -17.1 °C -23.3 °C 34063.2 hPa NW 5 km/h 11.1 km/h 43 % 0 mm
20:39 -17.3 °C -23 °C 34063.2 hPa NW 3.9 km/h 9.8 km/h 46 % 0 mm
20:44 -17.2 °C -22.9 °C 34063.2 hPa WNW 5 km/h 22 km/h 46 % 0 mm
20:49 -17.3 °C -22.9 °C 34063.2 hPa NW 5.6 km/h 22 km/h 47 % 0 mm
20:54 -17.3 °C -22.8 °C 34063.2 hPa NW 6 km/h 14.5 km/h 48 % 0 mm
20:59 -17.3 °C -22.6 °C 34097 hPa NW 5.5 km/h 10.3 km/h 49 % 0 mm
21:04 -17.4 °C -22.6 °C 34097 hPa NW 4.7 km/h 9.3 km/h 50 % 0 mm
21:09 -17.4 °C -22.6 °C 34097 hPa NW 3.9 km/h 9.3 km/h 50 % 0 mm
21:14 -17.4 °C -22.6 °C 34097 hPa North 4.3 km/h 11.1 km/h 50 % 0 mm
21:19 -17.6 °C -22.6 °C 34097 hPa NNE 4.2 km/h 11.1 km/h 51 % 0 mm
21:25 -17.6 °C -22.6 °C 34097 hPa WNW 2.6 km/h 6.4 km/h 51 % 0 mm
21:30 -17.6 °C -22.4 °C 34130.9 hPa WNW 1 km/h 6.4 km/h 52 % 0 mm
21:35 -17.7 °C -22.6 °C 34130.9 hPa NNW 2.3 km/h 7.6 km/h 52 % 0 mm
21:36 -17.8 °C -22.6 °C 34130.9 hPa NNW 2.3 km/h 7.6 km/h 52 % 0 mm
21:39 -17.8 °C -22.7 °C 34130.9 hPa NNW 2.6 km/h 7.6 km/h 52 % 0 mm
21:41 -17.8 °C -22.7 °C 34130.9 hPa NW 2.6 km/h 7.6 km/h 52 % 0 mm
21:43 -17.9 °C -22.6 °C 34063.2 hPa NW 1.8 km/h 7.6 km/h 53 % 0 mm
21:46 -17.9 °C -22.6 °C 34063.2 hPa NW 0.8 km/h 7.6 km/h 53 % 0 mm
21:51 -18 °C -22.7 °C 34063.2 hPa NW 0.3 km/h 4.2 km/h 53 % 0 mm
21:56 -18.1 °C -22.6 °C 34097 hPa North 0.8 km/h 6.4 km/h 54 % 0 mm
22:01 -18.2 °C -22.7 °C 34097 hPa North 1 km/h 6.4 km/h 54 % 0 mm
22:06 -18.2 °C -22.6 °C 34097 hPa NNW 1.6 km/h 7.6 km/h 55 % 0 mm
22:11 -18.3 °C -22.7 °C 34097 hPa NW 1.8 km/h 7.6 km/h 55 % 0 mm
22:13 -18.3 °C -22.7 °C 34097 hPa NW 0.8 km/h 6.4 km/h 55 % 0 mm
22:17 -18.3 °C -22.6 °C 34097 hPa NW 0.5 km/h 6.4 km/h 56 % 0 mm
22:20 -18.3 °C -22.6 °C 34097 hPa WSW 0.8 km/h 6.9 km/h 56 % 0 mm
22:21 -18.3 °C -22.6 °C 34097 hPa WNW 1 km/h 6.9 km/h 56 % 0 mm
22:22 -18.3 °C -22.6 °C 34097 hPa WNW 1.3 km/h 6.9 km/h 56 % 0 mm
22:25 -18.4 °C -22.7 °C 34097 hPa WNW 1.3 km/h 6.9 km/h 56 % 0 mm
22:26 -18.4 °C -22.7 °C 34130.9 hPa WNW 1.3 km/h 6.9 km/h 56 % 0 mm
22:29 -18.4 °C -22.6 °C 34130.9 hPa North 1 km/h 6.4 km/h 57 % 0 mm
22:30 -18.4 °C -22.6 °C 34130.9 hPa North 1.3 km/h 6.4 km/h 57 % 0 mm
22:35 -18.6 °C -22.7 °C 34130.9 hPa NNW 2.6 km/h 6.9 km/h 57 % 0 mm
22:36 -18.6 °C -22.7 °C 34130.9 hPa NNW 2.9 km/h 6.9 km/h 57 % 0 mm
22:39 -18.6 °C -22.6 °C 34130.9 hPa NNW 3.1 km/h 8 km/h 58 % 0 mm
22:49 -18.6 °C -22.6 °C 34130.9 hPa SSE 0.3 km/h 3.4 km/h 58 % 0 mm
22:51 -18.7 °C -22.6 °C 34130.9 hPa Calm     59 % 0 mm
22:56 -18.7 °C -22.6 °C 34130.9 hPa South 0.3 km/h 5.1 km/h 59 % 0 mm
23:01 -18.7 °C -22.6 °C 34130.9 hPa SSE 0.8 km/h 5.1 km/h 59 % 0 mm
23:06 -18.8 °C -22.6 °C 34130.9 hPa NW 2.1 km/h 5.6 km/h 60 % 0 mm
23:11 -18.8 °C -22.6 °C 34130.9 hPa WNW 4.2 km/h 6.9 km/h 60 % 0 mm
23:16 -18.8 °C -22.6 °C 34130.9 hPa West 4.2 km/h 8.9 km/h 60 % 0 mm
23:21 -18.9 °C -22.5 °C 34130.9 hPa WNW 3.1 km/h 8.9 km/h 61 % 0 mm
23:26 -18.9 °C -22.6 °C 34164.7 hPa NNW 1.8 km/h 6.4 km/h 61 % 0 mm
23:31 -18.9 °C -22.4 °C 34164.7 hPa NNW 0.8 km/h 4.2 km/h 62 % 0 mm
23:36 -19 °C -22.5 °C 34164.7 hPa West 0.3 km/h 5.1 km/h 62 % 0 mm
23:41 -19 °C -22.4 °C 34130.9 hPa South 2.6 km/h 8.9 km/h 63 % 0 mm
23:46 -19 °C -22.4 °C 34130.9 hPa SW 4.3 km/h 8.9 km/h 63 % 0 mm
23:51 -19.1 °C -22.4 °C 34130.9 hPa WSW 5.1 km/h 8.9 km/h 63 % 0 mm
23:56 -19.1 °C -22.3 °C 34130.9 hPa SW 5 km/h 8.9 km/h 64 % 0 mm
Vremenska postaja Senovo
Podatki zbrani iz Weather Underground - 2.25 mb

Script developed by  Jim McMurry - jmcmurry@mwt.net Adapted for the template by  Wim van der Kuil - Leuven-Template.eu

Vremenski podatki so objavljeni na:

European Weather Network

WeatherCloud

Weather Underground

AWEKAS

HAMweather, WeatherForYou, PWS Weather

MapView

Geostik

Slovenia weather network

Oprema, ki se uporablja:

Vremenski program
Cumulus

Vremenski server
Asus

Cumulus

Asus